KBEH/BEH METAR and TAF weather

Enter ICAO airport designator
Station Type Date Time Source
KBEH METAR 2018/10/19 15:53 UTC NOAA

KBEH 191553Z AUTO 21013G27KT 10SM SCT110 12/01 A3007 RMK AO2 PK WND 21027/1549 SLP185 T01170011


Station Type Date Time Source
KBEH Decoded METAR 2018/10/19 15:53 UTC NOAA

SOUTHWEST MICHIGAN REGIONAL, MI, United States (KBEH) 42-08N 86-25W 191M
Oct 19, 2018 - 11:53 AM EDT / 2018.10.19 1553 UTC
Wind: from the SSW (210 degrees) at 15 MPH (13 KT) gusting to 31 MPH (27 KT):0
Visibility: 10 mile(s):0
Sky conditions: partly cloudy
Temperature: 53.1 F (11.7 C)
Dew Point: 34.0 F (1.1 C)
Relative Humidity: 48%
Pressure (altimeter): 30.07 in. Hg (1018 hPa)
ob: KBEH 191553Z AUTO 21013G27KT 10SM SCT110 12/01 A3007 RMK AO2 PK WND 21027/1549 SLP185 T01170011
cycle: 16

Station Type Date Time Source
KBEH TAF UTC NOAA

Error!


Example: see airport list